createdAt,value
2022-10-18T00:00:03.501Z,1014.74
2022-10-18T00:01:03.521Z,1014.79
2022-10-18T00:02:03.576Z,1014.78
2022-10-18T00:03:03.530Z,1014.78
2022-10-18T00:04:03.539Z,1014.77
2022-10-18T00:05:03.443Z,1014.77
2022-10-18T00:06:03.460Z,1014.78
2022-10-18T00:07:03.429Z,1014.76
2022-10-18T00:08:03.559Z,1014.74
2022-10-18T00:09:03.418Z,1014.75
2022-10-18T00:11:29.852Z,1014.80
2022-10-18T00:12:29.984Z,1014.82
2022-10-18T00:13:29.532Z,1014.83
2022-10-18T00:14:29.350Z,1014.74
2022-10-18T00:15:30.195Z,1014.85
2022-10-18T00:16:30.182Z,1014.78
2022-10-18T00:17:30.667Z,1014.71
2022-10-18T00:18:30.213Z,1014.76
2022-10-18T00:19:29.605Z,1014.74
2022-10-18T00:20:30.217Z,1014.73
2022-10-18T00:21:29.313Z,1014.73
2022-10-18T00:22:30.577Z,1014.79
2022-10-18T00:23:30.169Z,1014.72
2022-10-18T00:24:29.279Z,1014.79
2022-10-18T00:25:29.291Z,1014.80
2022-10-18T00:26:29.289Z,1014.78
2022-10-18T00:27:29.268Z,1014.74
2022-10-18T00:28:29.693Z,1014.76
2022-10-18T00:29:29.262Z,1014.78
2022-10-18T00:30:29.240Z,1014.79
2022-10-18T00:31:29.480Z,1014.77
2022-10-18T00:32:29.840Z,1014.75
2022-10-18T00:33:30.119Z,1014.77
2022-10-18T00:34:29.208Z,1014.74
2022-10-18T00:35:29.269Z,1014.75
2022-10-18T00:36:29.338Z,1014.74
2022-10-18T00:37:29.192Z,1014.69
2022-10-18T00:38:29.177Z,1014.66
2022-10-18T00:39:29.176Z,1014.65
2022-10-18T00:40:29.183Z,1014.63
2022-10-18T00:41:29.183Z,1014.64
2022-10-18T00:42:29.476Z,1014.65
2022-10-18T00:43:29.147Z,1014.59
2022-10-18T00:44:29.137Z,1014.59
2022-10-18T00:45:29.127Z,1014.65
2022-10-18T00:46:29.747Z,1014.62
2022-10-18T00:47:29.757Z,1014.65
2022-10-18T00:48:29.766Z,1014.69
2022-10-18T00:49:29.107Z,1014.67
2022-10-18T00:50:29.097Z,1014.65
2022-10-18T00:51:29.116Z,1014.66
2022-10-18T00:52:29.292Z,1014.65
2022-10-18T00:53:29.078Z,1014.59
2022-10-18T00:54:29.075Z,1014.62
2022-10-18T00:55:29.068Z,1014.61
2022-10-18T00:56:29.075Z,1014.56
2022-10-18T00:57:29.064Z,1014.59
2022-10-18T00:58:29.045Z,1014.55
2022-10-18T00:59:29.117Z,1014.49
2022-10-18T01:00:29.252Z,1014.47
2022-10-18T01:01:29.119Z,1014.46
2022-10-18T01:02:29.332Z,1014.48
2022-10-18T01:03:29.036Z,1014.46
2022-10-18T01:04:28.995Z,1014.45
2022-10-18T01:05:28.995Z,1014.39
2022-10-18T01:06:28.997Z,1014.43
2022-10-18T01:07:29.257Z,1014.46
2022-10-18T01:08:29.287Z,1014.42
2022-10-18T01:09:28.965Z,1014.41
2022-10-18T01:10:28.954Z,1014.46
2022-10-18T01:11:28.995Z,1014.46
2022-10-18T01:12:28.945Z,1014.45
2022-10-18T01:13:28.938Z,1014.43
2022-10-18T01:14:28.936Z,1014.46
2022-10-18T01:15:29.114Z,1014.43
2022-10-18T01:16:28.995Z,1014.44
2022-10-18T01:17:29.068Z,1014.45
2022-10-18T01:18:28.903Z,1014.39
2022-10-18T01:19:28.904Z,1014.41
2022-10-18T01:20:28.893Z,1014.38
2022-10-18T01:21:28.965Z,1014.36
2022-10-18T01:22:28.883Z,1014.37
2022-10-18T01:23:29.035Z,1014.37
2022-10-18T01:24:28.932Z,1014.35
2022-10-18T01:25:28.893Z,1014.30
2022-10-18T01:26:28.922Z,1014.33
2022-10-18T01:27:29.228Z,1014.32
2022-10-18T01:28:28.926Z,1014.29
2022-10-18T01:29:28.832Z,1014.30
2022-10-18T01:30:28.822Z,1014.30
2022-10-18T01:31:28.963Z,1014.30
2022-10-18T01:32:28.804Z,1014.33
2022-10-18T01:33:28.812Z,1014.31
2022-10-18T01:34:28.802Z,1014.28
2022-10-18T01:35:28.842Z,1014.27
2022-10-18T01:36:28.783Z,1014.27
2022-10-18T01:37:29.131Z,1014.25
2022-10-18T01:38:28.772Z,1014.26
2022-10-18T01:39:28.770Z,1014.26
2022-10-18T01:40:29.682Z,1014.28
2022-10-18T01:41:28.770Z,1014.26
2022-10-18T01:42:28.773Z,1014.29
2022-10-18T01:43:29.581Z,1014.29
2022-10-18T01:44:29.561Z,1014.31
2022-10-18T01:45:28.751Z,1014.30
2022-10-18T01:46:28.779Z,1014.34
2022-10-18T01:47:29.367Z,1014.32
2022-10-18T01:48:28.790Z,1014.34
2022-10-18T01:49:28.721Z,1014.37
2022-10-18T01:50:28.714Z,1014.33
2022-10-18T01:51:30.186Z,1014.30
2022-10-18T01:52:28.875Z,1014.31
2022-10-18T01:53:28.790Z,1014.32
2022-10-18T01:54:28.761Z,1014.31
2022-10-18T01:55:28.968Z,1014.34
2022-10-18T01:56:28.708Z,1014.39
2022-10-18T01:57:28.671Z,1014.35
2022-10-18T01:58:28.793Z,1014.36
2022-10-18T01:59:28.700Z,1014.33
2022-10-18T02:00:28.647Z,1014.35
2022-10-18T02:01:28.609Z,1014.33
2022-10-18T02:02:28.804Z,1014.37
2022-10-18T02:03:28.599Z,1014.29
2022-10-18T02:04:28.599Z,1014.31
2022-10-18T02:05:28.699Z,1014.27
2022-10-18T02:06:28.708Z,1014.27
2022-10-18T02:07:28.648Z,1014.31
2022-10-18T02:08:28.568Z,1014.25
2022-10-18T02:09:28.581Z,1014.29
2022-10-18T02:10:28.648Z,1014.29
2022-10-18T02:11:28.548Z,1014.30
2022-10-18T02:12:28.765Z,1014.28
2022-10-18T02:13:28.548Z,1014.25
2022-10-18T02:14:28.519Z,1014.25
2022-10-18T02:15:28.516Z,1014.25
2022-10-18T02:16:28.509Z,1014.23
2022-10-18T02:17:28.517Z,1014.23
2022-10-18T02:18:28.486Z,1014.24
2022-10-18T02:19:28.530Z,1014.25
2022-10-18T02:20:28.476Z,1014.22
2022-10-18T02:21:28.823Z,1014.22
2022-10-18T02:22:29.227Z,1014.15
2022-10-18T02:23:28.957Z,1014.10
2022-10-18T02:24:28.464Z,1014.15
2022-10-18T02:25:28.454Z,1014.11
2022-10-18T02:26:28.451Z,1014.12
2022-10-18T02:27:28.456Z,1014.11
2022-10-18T02:28:28.455Z,1014.10
2022-10-18T02:29:28.464Z,1014.08
2022-10-18T02:30:28.424Z,1014.04
2022-10-18T02:31:28.502Z,1014.06
2022-10-18T02:32:28.558Z,1014.05
2022-10-18T02:33:28.394Z,1014.02
2022-10-18T02:34:28.386Z,1014.03
2022-10-18T02:35:28.405Z,1014.04
2022-10-18T02:36:28.382Z,1014.03
2022-10-18T02:37:28.416Z,1014.08
2022-10-18T02:38:28.384Z,1014.05
2022-10-18T02:39:28.364Z,1014.04
2022-10-18T02:40:28.344Z,1014.02
2022-10-18T02:41:28.356Z,1014.05
2022-10-18T02:42:28.354Z,1014.08
2022-10-18T02:43:28.475Z,1014.05
2022-10-18T02:44:28.323Z,1014.09
2022-10-18T02:45:28.353Z,1014.09
2022-10-18T02:46:28.332Z,1014.10
2022-10-18T02:47:28.377Z,1014.12
2022-10-18T02:48:28.304Z,1014.06
2022-10-18T02:49:28.293Z,1014.07
2022-10-18T02:50:28.316Z,1014.12
2022-10-18T02:51:28.295Z,1014.11
2022-10-18T02:52:28.262Z,1014.12
2022-10-18T02:53:28.436Z,1014.06
2022-10-18T02:54:28.441Z,1014.15
2022-10-18T02:56:28.243Z,1014.18
2022-10-18T02:57:28.391Z,1014.17
2022-10-18T02:58:28.242Z,1014.16
2022-10-18T02:59:28.699Z,1014.19
2022-10-18T03:00:28.682Z,1014.19
2022-10-18T03:01:28.725Z,1014.20
2022-10-18T03:02:28.192Z,1014.18
2022-10-18T03:03:28.214Z,1014.10
2022-10-18T03:05:28.194Z,1014.11
2022-10-18T03:06:28.171Z,1014.10
2022-10-18T03:07:28.174Z,1014.06
2022-10-18T03:08:28.420Z,1014.06
2022-10-18T03:09:28.162Z,1014.11
2022-10-18T03:10:28.285Z,1014.08
2022-10-18T03:11:28.203Z,1014.04
2022-10-18T03:12:28.643Z,1014.09
2022-10-18T03:14:28.790Z,1014.13
2022-10-18T03:15:28.121Z,1014.10
2022-10-18T03:16:28.099Z,1014.10
2022-10-18T03:17:28.122Z,1014.11
2022-10-18T03:18:28.130Z,1014.11
2022-10-18T03:19:28.112Z,1014.08
2022-10-18T03:20:28.099Z,1014.09
2022-10-18T03:21:28.096Z,1014.07
2022-10-18T03:23:28.130Z,1014.05
2022-10-18T03:24:28.099Z,1014.04
2022-10-18T03:25:28.109Z,1014.05
2022-10-18T03:26:28.034Z,1014.03
2022-10-18T03:27:28.132Z,1014.05
2022-10-18T03:28:28.126Z,1014.02
2022-10-18T03:29:28.101Z,1014.03
2022-10-18T03:30:28.008Z,1014.06
2022-10-18T03:31:28.067Z,1014.03
2022-10-18T03:32:28.000Z,1014.08
2022-10-18T03:33:28.019Z,1014.02
2022-10-18T03:34:28.170Z,1014.08
2022-10-18T03:35:27.988Z,1014.10
2022-10-18T03:36:27.969Z,1014.09
2022-10-18T03:37:28.313Z,1014.08
2022-10-18T03:38:28.308Z,1014.09
2022-10-18T03:39:28.318Z,1014.12
2022-10-18T03:40:28.008Z,1014.07
2022-10-18T03:41:28.009Z,1014.03
2022-10-18T03:42:27.927Z,1014.11
2022-10-18T03:43:27.953Z,1014.09
2022-10-18T03:44:27.916Z,1014.03
2022-10-18T03:45:31.173Z,1014.08
2022-10-18T03:46:27.901Z,1014.03
2022-10-18T03:47:27.908Z,1014.05
2022-10-18T03:48:27.906Z,1014.01
2022-10-18T03:49:28.088Z,1014.02
2022-10-18T03:50:27.879Z,1014.02
2022-10-18T03:51:27.884Z,1014.07
2022-10-18T03:52:27.887Z,1014.10
2022-10-18T03:53:27.871Z,1014.08
2022-10-18T03:54:27.840Z,1014.09
2022-10-18T03:55:27.837Z,1014.07
2022-10-18T03:56:28.236Z,1014.06
2022-10-18T03:57:27.828Z,1014.08
2022-10-18T03:58:27.924Z,1014.07
2022-10-18T03:59:27.820Z,1014.01
2022-10-18T04:00:27.815Z,1014.01
2022-10-18T04:01:27.831Z,1014.03
2022-10-18T04:02:27.788Z,1013.99
2022-10-18T04:03:27.806Z,1014.02
2022-10-18T04:04:27.778Z,1014.05
2022-10-18T04:05:27.775Z,1014.04
2022-10-18T04:06:27.765Z,1014.03
2022-10-18T04:07:27.817Z,1014.06
2022-10-18T04:08:27.755Z,1013.97
2022-10-18T04:09:27.757Z,1013.99
2022-10-18T04:10:27.743Z,1013.99
2022-10-18T04:11:28.537Z,1014.02
2022-10-18T04:12:28.836Z,1013.99
2022-10-18T04:13:27.726Z,1014.01
2022-10-18T04:14:27.944Z,1014.05
2022-10-18T04:15:28.635Z,1014.02
2022-10-18T04:16:28.563Z,1014.02
2022-10-18T04:17:27.754Z,1014.03
2022-10-18T04:18:27.764Z,1014.06
2022-10-18T04:19:27.743Z,1014.11
2022-10-18T04:20:27.673Z,1014.03
2022-10-18T04:21:27.672Z,1014.03
2022-10-18T04:22:27.683Z,1014.07
2022-10-18T04:23:27.674Z,1014.04
2022-10-18T04:24:27.673Z,1014.09
2022-10-18T04:25:27.667Z,1014.09
2022-10-18T04:26:27.625Z,1014.10
2022-10-18T04:27:28.112Z,1014.11
2022-10-18T04:28:28.154Z,1014.09
2022-10-18T04:29:27.623Z,1014.10
2022-10-18T04:30:27.606Z,1014.09
2022-10-18T04:31:27.592Z,1014.13
2022-10-18T04:32:27.583Z,1014.13
2022-10-18T04:33:28.351Z,1014.14
2022-10-18T04:34:27.583Z,1014.16
2022-10-18T04:35:27.572Z,1014.15
2022-10-18T04:36:27.563Z,1014.18
2022-10-18T04:37:28.711Z,1014.15
2022-10-18T04:38:28.472Z,1014.15
2022-10-18T04:39:27.563Z,1014.19
2022-10-18T04:40:27.611Z,1014.20
2022-10-18T04:41:27.521Z,1014.17
2022-10-18T04:42:27.522Z,1014.16
2022-10-18T04:43:27.510Z,1014.17
2022-10-18T04:44:27.550Z,1014.21
2022-10-18T04:45:27.550Z,1014.18
2022-10-18T04:46:27.620Z,1014.22
2022-10-18T04:47:27.491Z,1014.22
2022-10-18T04:48:27.478Z,1014.21
2022-10-18T04:49:27.479Z,1014.23
2022-10-18T04:50:27.482Z,1014.21
2022-10-18T04:51:27.993Z,1014.24
2022-10-18T04:52:27.451Z,1014.19
2022-10-18T04:53:27.450Z,1014.22
2022-10-18T04:54:28.650Z,1014.21
2022-10-18T04:55:27.890Z,1014.18
2022-10-18T04:56:27.421Z,1014.19
2022-10-18T04:57:27.419Z,1014.20
2022-10-18T04:58:27.630Z,1014.19
2022-10-18T04:59:27.629Z,1014.17
2022-10-18T05:00:27.639Z,1014.20
2022-10-18T05:01:27.421Z,1014.16
2022-10-18T05:02:27.387Z,1014.20
2022-10-18T05:03:27.378Z,1014.20
2022-10-18T05:04:27.411Z,1014.16
2022-10-18T05:05:49.672Z,1014.16
2022-10-18T05:06:27.946Z,1014.19
2022-10-18T05:07:27.349Z,1014.15
2022-10-18T05:08:27.338Z,1014.19
2022-10-18T05:09:28.109Z,1014.21
2022-10-18T05:10:27.336Z,1014.19
2022-10-18T05:11:27.329Z,1014.20
2022-10-18T05:12:27.307Z,1014.20
2022-10-18T05:13:27.309Z,1014.22
2022-10-18T05:14:27.339Z,1014.28
2022-10-18T05:15:27.410Z,1014.23
2022-10-18T05:16:27.287Z,1014.25
2022-10-18T05:17:27.290Z,1014.26
2022-10-18T05:18:27.277Z,1014.26
2022-10-18T05:19:27.289Z,1014.27
2022-10-18T05:20:27.257Z,1014.21
2022-10-18T05:21:27.253Z,1014.30
2022-10-18T05:22:27.255Z,1014.25
2022-10-18T05:23:27.265Z,1014.19
2022-10-18T05:24:27.817Z,1014.20
2022-10-18T05:25:27.405Z,1014.20
2022-10-18T05:26:27.225Z,1014.15
2022-10-18T05:27:27.222Z,1014.18
2022-10-18T05:28:39.595Z,1014.17
2022-10-18T05:30:27.224Z,1014.15
2022-10-18T05:31:27.443Z,1014.14
2022-10-18T05:32:27.165Z,1014.17
2022-10-18T05:33:27.179Z,1014.13
2022-10-18T05:34:27.177Z,1014.17
2022-10-18T05:35:27.165Z,1014.19
2022-10-18T05:36:27.146Z,1014.11
2022-10-18T05:37:28.397Z,1014.17
2022-10-18T05:38:27.157Z,1014.14
2022-10-18T05:39:27.174Z,1014.21
2022-10-18T05:40:27.144Z,1014.20
2022-10-18T05:41:27.115Z,1014.15
2022-10-18T05:42:27.103Z,1014.17
2022-10-18T05:43:27.104Z,1014.16
2022-10-18T05:44:27.104Z,1014.21
2022-10-18T05:45:27.096Z,1014.18
2022-10-18T05:46:27.104Z,1014.22
2022-10-18T05:47:27.100Z,1014.19
2022-10-18T05:48:27.070Z,1014.22
2022-10-18T05:49:27.084Z,1014.14
2022-10-18T05:50:27.054Z,1014.17
2022-10-18T05:51:27.050Z,1014.11
2022-10-18T05:52:27.075Z,1014.15
2022-10-18T05:53:42.437Z,1014.15
2022-10-18T05:54:27.044Z,1014.11
2022-10-18T05:55:27.032Z,1014.15
2022-10-18T05:56:27.313Z,1014.14
2022-10-18T05:57:27.011Z,1014.13
2022-10-18T05:58:27.054Z,1014.15
2022-10-18T05:59:27.001Z,1014.25
2022-10-18T06:00:27.030Z,1014.21
2022-10-18T06:01:26.979Z,1014.26
2022-10-18T06:02:27.048Z,1014.27
2022-10-18T06:03:26.984Z,1014.24
2022-10-18T06:04:27.021Z,1014.26
2022-10-18T06:05:27.001Z,1014.29
2022-10-18T06:06:27.903Z,1014.30
2022-10-18T06:07:26.948Z,1014.23
2022-10-18T06:08:26.952Z,1014.28
2022-10-18T06:09:27.904Z,1014.29
2022-10-18T06:10:27.010Z,1014.28
2022-10-18T06:11:26.921Z,1014.26
2022-10-18T06:12:26.900Z,1014.25
2022-10-18T06:13:27.654Z,1014.22
2022-10-18T06:14:26.900Z,1014.27
2022-10-18T06:15:26.888Z,1014.28
2022-10-18T06:16:32.062Z,1014.27
2022-10-18T06:17:28.998Z,1014.27
2022-10-18T06:18:26.939Z,1014.37
2022-10-18T06:19:26.880Z,1014.34
2022-10-18T06:20:26.841Z,1014.32
2022-10-18T06:21:26.849Z,1014.34
2022-10-18T06:22:26.840Z,1014.38
2022-10-18T06:23:26.829Z,1014.31
2022-10-18T06:24:26.846Z,1014.34
2022-10-18T06:25:26.828Z,1014.38
2022-10-18T06:26:26.811Z,1014.37
2022-10-18T06:27:26.810Z,1014.38
2022-10-18T06:28:26.867Z,1014.40
2022-10-18T06:29:26.812Z,1014.40
2022-10-18T06:30:26.779Z,1014.41
2022-10-18T06:31:26.791Z,1014.38
2022-10-18T06:32:26.767Z,1014.40
2022-10-18T06:33:26.792Z,1014.40
2022-10-18T06:34:27.070Z,1014.39
2022-10-18T06:35:27.073Z,1014.42
2022-10-18T06:36:27.081Z,1014.40
2022-10-18T06:37:26.812Z,1014.48
2022-10-18T06:38:27.093Z,1014.46
2022-10-18T06:39:26.767Z,1014.43
2022-10-18T06:40:26.718Z,1014.55
2022-10-18T06:41:26.726Z,1014.50
2022-10-18T06:42:27.097Z,1014.52
2022-10-18T06:43:26.697Z,1014.45
2022-10-18T06:44:26.704Z,1014.46
2022-10-18T06:45:26.688Z,1014.47
2022-10-18T06:46:26.695Z,1014.45
2022-10-18T06:47:26.674Z,1014.47
2022-10-18T06:48:26.676Z,1014.52
2022-10-18T06:49:26.671Z,1014.53
2022-10-18T06:50:26.753Z,1014.53
2022-10-18T06:51:26.646Z,1014.55
2022-10-18T06:52:26.635Z,1014.52
2022-10-18T06:53:26.698Z,1014.58
2022-10-18T06:54:26.637Z,1014.50
2022-10-18T06:55:26.711Z,1014.53
2022-10-18T06:56:26.603Z,1014.54
2022-10-18T06:57:26.603Z,1014.55
2022-10-18T06:58:26.734Z,1014.63
2022-10-18T06:59:28.978Z,1014.61
2022-10-18T07:00:26.607Z,1014.67
2022-10-18T07:01:26.602Z,1014.68
2022-10-18T07:02:26.625Z,1014.72
2022-10-18T07:03:26.625Z,1014.76
2022-10-18T07:04:26.812Z,1014.74
2022-10-18T07:05:26.888Z,1014.68
2022-10-18T07:06:26.842Z,1014.73
2022-10-18T07:07:26.866Z,1014.70
2022-10-18T07:08:26.540Z,1014.65
2022-10-18T07:09:26.554Z,1014.62
2022-10-18T07:10:26.513Z,1014.66
2022-10-18T07:11:26.515Z,1014.68
2022-10-18T07:12:26.493Z,1014.71
2022-10-18T07:13:32.290Z,1014.65
2022-10-18T07:14:29.043Z,1014.67
2022-10-18T07:15:26.499Z,1014.69
2022-10-18T07:16:26.463Z,1014.72
2022-10-18T07:17:26.471Z,1014.74
2022-10-18T07:18:26.474Z,1014.72
2022-10-18T07:19:26.462Z,1014.75
2022-10-18T07:20:27.015Z,1014.72
2022-10-18T07:21:27.025Z,1014.77
2022-10-18T07:22:30.179Z,1014.72
2022-10-18T07:23:26.462Z,1014.72
2022-10-18T07:24:26.521Z,1014.77
2022-10-18T07:25:28.468Z,1014.74
2022-10-18T07:26:26.412Z,1014.75
2022-10-18T07:27:26.406Z,1014.78
2022-10-18T07:28:26.456Z,1014.82
2022-10-18T07:29:26.382Z,1014.84
2022-10-18T07:30:26.405Z,1014.89
2022-10-18T07:31:26.431Z,1014.91
2022-10-18T07:32:26.581Z,1014.93
2022-10-18T07:33:26.382Z,1014.92
2022-10-18T07:34:26.351Z,1014.88
2022-10-18T07:35:26.384Z,1014.95
2022-10-18T07:36:26.331Z,1014.99
2022-10-18T07:37:29.329Z,1014.98
2022-10-18T07:38:26.472Z,1014.98
2022-10-18T07:39:26.331Z,1015.02
2022-10-18T07:40:26.321Z,1015.05
2022-10-18T07:41:26.299Z,1015.05
2022-10-18T07:42:26.301Z,1015.06
2022-10-18T07:43:26.504Z,1015.07
2022-10-18T07:44:26.520Z,1015.09
2022-10-18T07:45:26.369Z,1015.16
2022-10-18T07:46:26.529Z,1015.14
2022-10-18T07:47:28.066Z,1015.10
2022-10-18T07:48:26.551Z,1015.11
2022-10-18T07:49:26.550Z,1015.17
2022-10-18T07:50:26.559Z,1015.19
2022-10-18T07:51:26.585Z,1015.17
2022-10-18T07:52:26.560Z,1015.22
2022-10-18T07:53:26.582Z,1015.25
2022-10-18T07:54:26.590Z,1015.18
2022-10-18T07:55:26.589Z,1015.25
2022-10-18T07:56:26.236Z,1015.28
2022-10-18T07:57:26.240Z,1015.30
2022-10-18T07:58:26.220Z,1015.27
2022-10-18T07:59:26.279Z,1015.29
2022-10-18T08:00:26.408Z,1015.31
2022-10-18T08:01:26.463Z,1015.33
2022-10-18T08:02:26.428Z,1015.33
2022-10-18T08:03:26.427Z,1015.35
2022-10-18T08:04:26.427Z,1015.35
2022-10-18T08:05:26.285Z,1015.32
2022-10-18T08:06:26.126Z,1015.34
2022-10-18T08:07:26.458Z,1015.32
2022-10-18T08:08:26.497Z,1015.36
2022-10-18T08:09:26.197Z,1015.38
2022-10-18T08:10:26.776Z,1015.35
2022-10-18T08:11:27.007Z,1015.32
2022-10-18T08:12:27.014Z,1015.36
2022-10-18T08:13:26.127Z,1015.35
2022-10-18T08:14:26.128Z,1015.40
2022-10-18T08:15:26.986Z,1015.42
2022-10-18T08:16:26.205Z,1015.40
2022-10-18T08:17:26.118Z,1015.44
2022-10-18T08:18:26.149Z,1015.44
2022-10-18T08:19:26.135Z,1015.46
2022-10-18T08:20:30.788Z,1015.45
2022-10-18T08:21:26.122Z,1015.45
2022-10-18T08:22:26.298Z,1015.48
2022-10-18T08:23:26.374Z,1015.48
2022-10-18T08:24:26.375Z,1015.40
2022-10-18T08:25:26.420Z,1015.41
2022-10-18T08:26:26.595Z,1015.38
2022-10-18T08:27:26.507Z,1015.37
2022-10-18T08:28:26.720Z,1015.31
2022-10-18T08:29:29.368Z,1015.38
2022-10-18T08:30:26.397Z,1015.31
2022-10-18T08:31:26.193Z,1015.35
2022-10-18T08:32:26.414Z,1015.37
2022-10-18T08:33:26.014Z,1015.36
2022-10-18T08:34:26.084Z,1015.35
2022-10-18T08:35:25.944Z,1015.35
2022-10-18T08:36:25.977Z,1015.35
2022-10-18T08:37:26.032Z,1015.38
2022-10-18T08:38:26.255Z,1015.39
2022-10-18T08:39:25.936Z,1015.45
2022-10-18T08:40:26.264Z,1015.46
2022-10-18T08:41:26.323Z,1015.49
2022-10-18T08:42:25.934Z,1015.46
2022-10-18T08:43:26.622Z,1015.50
2022-10-18T08:44:26.096Z,1015.54
2022-10-18T08:45:37.705Z,1015.60
2022-10-18T08:46:26.534Z,1015.56
2022-10-18T08:47:26.509Z,1015.46
2022-10-18T08:48:26.752Z,1015.51
2022-10-18T08:49:25.866Z,1015.50
2022-10-18T08:50:26.324Z,1015.49
2022-10-18T08:51:26.533Z,1015.55
2022-10-18T08:52:26.776Z,1015.52
2022-10-18T08:53:26.132Z,1015.57
2022-10-18T08:54:25.861Z,1015.55
2022-10-18T08:55:25.853Z,1015.60
2022-10-18T08:56:25.835Z,1015.67
2022-10-18T08:57:25.812Z,1015.65
2022-10-18T08:58:25.832Z,1015.67
2022-10-18T08:59:26.381Z,1015.66
2022-10-18T09:00:26.392Z,1015.74
2022-10-18T09:01:26.782Z,1015.70
2022-10-18T09:02:25.801Z,1015.75
2022-10-18T09:03:25.919Z,1015.72
2022-10-18T09:04:26.020Z,1015.76
2022-10-18T09:05:26.652Z,1015.74
2022-10-18T09:06:26.021Z,1015.86
2022-10-18T09:07:26.042Z,1015.78
2022-10-18T09:08:26.030Z,1015.83
2022-10-18T09:09:26.450Z,1015.77
2022-10-18T09:10:26.067Z,1015.80
2022-10-18T09:11:25.746Z,1015.81
2022-10-18T09:12:25.732Z,1015.78
2022-10-18T09:13:25.892Z,1015.79
2022-10-18T09:14:25.710Z,1015.76
2022-10-18T09:15:25.900Z,1015.80
2022-10-18T09:16:25.918Z,1015.82
2022-10-18T09:17:25.845Z,1015.82
2022-10-18T09:18:26.149Z,1015.79
2022-10-18T09:19:26.162Z,1015.85
2022-10-18T09:20:26.139Z,1015.81
2022-10-18T09:21:25.902Z,1015.82
2022-10-18T09:22:26.168Z,1015.86
2022-10-18T09:23:26.020Z,1015.81
2022-10-18T09:24:25.650Z,1015.87
2022-10-18T09:25:25.729Z,1015.82
2022-10-18T09:26:25.631Z,1015.81
2022-10-18T09:27:25.608Z,1015.89
2022-10-18T09:28:26.564Z,1015.88
2022-10-18T09:29:25.573Z,1015.95
2022-10-18T09:30:25.603Z,1015.91
2022-10-18T09:31:25.579Z,1015.83
2022-10-18T09:32:26.167Z,1015.85
2022-10-18T09:33:26.517Z,1015.81
2022-10-18T09:34:25.590Z,1015.84
2022-10-18T09:35:25.588Z,1015.85
2022-10-18T09:36:25.606Z,1015.84
2022-10-18T09:37:25.627Z,1015.88
2022-10-18T09:39:25.520Z,1015.87
2022-10-18T09:40:25.535Z,1015.88
2022-10-18T09:41:25.496Z,1015.89
2022-10-18T09:42:25.518Z,1015.92
2022-10-18T09:43:25.550Z,1015.94
2022-10-18T09:44:25.546Z,1015.98
2022-10-18T09:45:25.499Z,1015.98
2022-10-18T09:46:25.517Z,1015.93
2022-10-18T09:47:25.547Z,1015.92
2022-10-18T09:48:25.469Z,1015.94
2022-10-18T09:49:25.686Z,1015.95
2022-10-18T09:50:25.736Z,1015.97
2022-10-18T09:51:25.727Z,1016.00
2022-10-18T09:52:25.537Z,1015.93
2022-10-18T09:53:25.555Z,1015.92
2022-10-18T09:54:25.823Z,1015.94
2022-10-18T09:55:25.418Z,1015.93
2022-10-18T09:56:25.725Z,1015.96
2022-10-18T09:57:25.747Z,1015.90
2022-10-18T09:58:25.398Z,1015.94
2022-10-18T09:59:25.792Z,1015.95
2022-10-18T10:00:25.402Z,1015.94
2022-10-18T10:01:25.382Z,1015.98
2022-10-18T10:02:25.475Z,1015.96
2022-10-18T10:03:25.366Z,1015.97
2022-10-18T10:04:25.423Z,1015.93
2022-10-18T10:05:25.374Z,1015.93
2022-10-18T10:06:25.386Z,1015.91
2022-10-18T10:07:26.846Z,1015.94
2022-10-18T10:08:25.404Z,1015.93
2022-10-18T10:09:25.423Z,1015.89
2022-10-18T10:10:25.444Z,1015.96
2022-10-18T10:11:25.276Z,1015.99
2022-10-18T10:12:25.432Z,1015.94
2022-10-18T10:13:25.485Z,1016.01
2022-10-18T10:14:25.869Z,1016.01
2022-10-18T10:15:28.149Z,1016.03
2022-10-18T10:16:25.674Z,1016.09
2022-10-18T10:17:25.302Z,1016.02
2022-10-18T10:18:25.242Z,1015.99
2022-10-18T10:19:25.325Z,1015.97
2022-10-18T10:20:25.883Z,1015.91
2022-10-18T10:21:25.893Z,1015.94
2022-10-18T10:22:25.193Z,1015.98
2022-10-18T10:23:25.297Z,1015.90
2022-10-18T10:24:28.718Z,1015.87
2022-10-18T10:25:25.174Z,1015.94
2022-10-18T10:26:25.303Z,1015.90
2022-10-18T10:27:25.173Z,1015.87
2022-10-18T10:28:25.246Z,1015.86
2022-10-18T10:29:43.641Z,1015.79
2022-10-18T10:30:25.330Z,1015.85
2022-10-18T10:31:25.331Z,1015.86
2022-10-18T10:32:25.229Z,1015.88
2022-10-18T10:33:25.153Z,1015.86
2022-10-18T10:34:25.142Z,1015.87
2022-10-18T10:35:41.543Z,1015.85
2022-10-18T10:36:25.372Z,1015.80
2022-10-18T10:37:25.171Z,1015.86
2022-10-18T10:38:25.388Z,1015.88
2022-10-18T10:39:25.391Z,1015.90
2022-10-18T10:40:28.504Z,1015.86
2022-10-18T10:41:25.452Z,1015.89
2022-10-18T10:42:25.409Z,1015.88
2022-10-18T10:43:40.744Z,1015.90
2022-10-18T10:44:25.219Z,1015.84
2022-10-18T10:45:25.432Z,1015.79
2022-10-18T10:46:25.149Z,1015.86
2022-10-18T10:47:25.142Z,1015.84
2022-10-18T10:48:28.741Z,1015.84
2022-10-18T10:49:39.839Z,1015.84
2022-10-18T10:50:25.105Z,1015.87
2022-10-18T10:51:25.250Z,1015.84
2022-10-18T10:52:27.780Z,1015.95
2022-10-18T10:53:24.980Z,1015.83
2022-10-18T10:54:25.542Z,1015.87
2022-10-18T10:55:34.870Z,1015.83
2022-10-18T10:56:25.101Z,1015.81
2022-10-18T10:57:24.970Z,1015.82
2022-10-18T10:58:25.019Z,1015.86
2022-10-18T10:59:24.969Z,1015.90
2022-10-18T11:00:24.960Z,1015.90
2022-10-18T11:01:24.969Z,1015.97
2022-10-18T11:02:25.129Z,1015.99
2022-10-18T11:03:29.621Z,1015.98
2022-10-18T11:04:25.014Z,1015.99
2022-10-18T11:05:24.938Z,1015.96
2022-10-18T11:06:24.940Z,1015.99
2022-10-18T11:07:24.941Z,1015.95
2022-10-18T11:08:24.899Z,1015.86
2022-10-18T11:09:24.947Z,1015.92
2022-10-18T11:10:25.001Z,1015.92
2022-10-18T11:11:24.971Z,1016.04
2022-10-18T11:12:24.977Z,1015.98
2022-10-18T11:13:25.006Z,1016.00
2022-10-18T11:14:26.462Z,1015.94
2022-10-18T11:15:24.880Z,1016.06
2022-10-18T11:16:25.026Z,1016.04
2022-10-18T11:17:24.828Z,1016.01
2022-10-18T11:18:25.050Z,1015.95
2022-10-18T11:19:26.418Z,1016.02
2022-10-18T11:20:25.086Z,1016.07
2022-10-18T11:21:24.838Z,1016.10
2022-10-18T11:22:24.830Z,1016.08
2022-10-18T11:23:24.859Z,1016.10
2022-10-18T11:24:24.878Z,1016.10
2022-10-18T11:25:25.146Z,1016.04
2022-10-18T11:26:24.796Z,1016.05
2022-10-18T11:27:25.083Z,1016.03
2022-10-18T11:28:24.925Z,1015.95
2022-10-18T11:29:25.203Z,1015.98
2022-10-18T11:30:24.794Z,1016.07
2022-10-18T11:31:24.984Z,1016.08
2022-10-18T11:32:24.797Z,1016.07
2022-10-18T11:33:38.276Z,1016.07
2022-10-18T11:34:24.768Z,1016.08
2022-10-18T11:35:24.756Z,1016.10
2022-10-18T11:36:24.770Z,1016.05
2022-10-18T11:37:31.035Z,1016.02
2022-10-18T11:38:25.317Z,1016.04
2022-10-18T11:39:24.805Z,1016.10
2022-10-18T11:40:24.835Z,1016.04
2022-10-18T11:41:24.779Z,1016.06
2022-10-18T11:42:24.714Z,1016.13
2022-10-18T11:43:30.134Z,1016.08
2022-10-18T11:44:24.695Z,1016.05
2022-10-18T11:45:24.724Z,1015.98
2022-10-18T11:46:24.873Z,1016.00
2022-10-18T11:47:24.708Z,1015.99
2022-10-18T11:48:24.734Z,1015.94
2022-10-18T11:49:24.636Z,1015.91
2022-10-18T11:50:24.684Z,1015.95
2022-10-18T11:51:34.116Z,1015.94
2022-10-18T11:52:24.833Z,1015.97
2022-10-18T11:53:24.843Z,1016.02
2022-10-18T11:54:24.728Z,1016.00
2022-10-18T11:55:27.665Z,1016.01
2022-10-18T11:56:24.874Z,1015.98
2022-10-18T11:57:24.873Z,1015.94
2022-10-18T11:58:24.568Z,1015.91
2022-10-18T11:59:24.586Z,1015.92
2022-10-18T12:00:24.701Z,1015.91
2022-10-18T12:01:27.689Z,1015.94
2022-10-18T12:02:24.838Z,1015.95
2022-10-18T12:03:24.608Z,1015.96
2022-10-18T12:04:24.605Z,1015.94
2022-10-18T12:05:25.049Z,1015.91
2022-10-18T12:06:24.727Z,1015.90
2022-10-18T12:07:27.725Z,1015.77
2022-10-18T12:08:24.493Z,1015.72
2022-10-18T12:09:24.511Z,1015.79
2022-10-18T12:10:37.776Z,1015.81
2022-10-18T12:11:24.759Z,1015.78
2022-10-18T12:12:24.844Z,1015.81